To NAV CANADA Home Page Login to a new session Search on AWWS site Disclaimer Vers la page française équivalente Tips FAQ What's new on the site To the Forecasts and Observations / NOTAM section To "File a Flight Plan" website Publications and other links Update of the User's profile FIC Telephone Numbers My Weather Data Folder Route Weather Data Regional Weather Data Local Weather Data To the Forecasts and Observations / NOTAM section
Request Generated 05/19/2019 at 15:18:22 UTC . Weather information available at that time is displayed.


Go to a specific product

Save this request

NOTAM

NOTAM


SIGMET
To the Product Selector

SIGMETS GFACN32

GFACN32 - No SIGMET bulletins in effect



AIRMET
To the Product Selector

AIRMETS GFACN32

GFACN32 - No AIRMET bulletins in effect



PIREP
To the Product Selector

FIR_WINNIPEG (WG)

WG - PIREP not available



METAR/TAF
To the Product Selector

REGINA INTL/SK    

METAR CYQR 191500Z 07011KT 040V120 15SM FEW044 FEW250 08/M03 A3020 RMK CU1CI1 CU TR CI TR SLP248=
METAR CYQR 191400Z 08008KT 15SM FEW250 06/M02 A3021 RMK CI1 CI TR SLP249=
METAR CYQR 191300Z 06006KT 15SM FEW250 04/M03 A3020 RMK CI1 CI TR SLP248=

TAF CYQR 191138Z 1912/2012 01008KT P6SM SKC
BECMG 1912/1914 08010KT
FM192000 09012G22KT P6SM SCT040 BKN200
BECMG 2002/2004 10008KT
RMK NXT FCST BY 191800Z=

MOOSE JAW/AIR VICE MARSHAL C.M. MCEWEN/SK    

CYMJ - METAR not available

*** REMARK        : Forecast period has ended; this was the last TAF issued
*** REMARQUE : La période de prévision est échue; ceci était le dernier TAF qui a été émis
TAF AMD CYMJ 172223Z 1718/1806 FCST CNCLD DUE END OF FLYING PROGRAM
RMK NXT FCST WILL BE ISSUED AT 211115Z=


RADAR PCPN RATE
To the Product Selector
Pacific Canada      Western Canada     

SATELLITE VISIBLE
To the Product Selector
West Canada      

SATELLITE INFRARED
To the Product Selector
West Canada     

GRAPHICAL FA CLOUDS & WEATHER FORECASTS
To the Product Selector
Graphical FA gfacn32      

GRAPHICAL FA ICING, TURBULENCE & FREEZING LEVEL FORECASTS
To the Product Selector
Graphical FA gfacn32      

FDTEXT Low Level FD. Temperatures are not forecast for the 3,000-foot level.
To the Product Selector
STN YQR - REGINA. SASK for use 3000 6000 9000 12000 18000
FDCN01 CWAO FCST BASED ON 191200 DATA VALID 191800 17-21 1014-03 1017-06 0922-09 0824-21
FDCN02 CWAO FCST BASED ON 191200 DATA VALID 200000 21-06 0911+01 1013-06 1119-10 0923-21
FDCN03 CWAO FCST BASED ON 191200 DATA VALID 201200 06-17 1014-01 1216-05 1116-10 1225-20



Your time UTC time
Weather data provided by Environment Canada and NAV CANADA